Still River, Massachusetts
Current Conditions -  °F | °C
As of 10:52 AM on Friday 24 Oct 2014 (Local Time) from KFIT Reporting Station
Overcast Overcast  
Wind Chill: 51°   Ceiling: 2700
Heat Index: 51°   Visibility: 10mi
Dew Point: 44°   Wind: 7mph
Humidity: 77%   Direction: 330°NNW
Pressure: 29.74"   Gusts: NA
Location:  42.49°N, 71.62°W
Report Text: KFIT 241452Z AUTO 33006KT 10SM FEW017 OVC027 11/07 A2974 RMK AO2 SLP073 T01060067 50006
Loading
Personal Weather Stations






























Interactive Weather Map
Tropical Storm Tracking
New forecast layout! Learn more

10-Day Weather Forecast

Advertisements
Track Severe Weather on mobile